createdAt,value
2018-06-15T00:00:53.340Z,16.80
2018-06-15T00:03:21.545Z,16.80
2018-06-15T00:05:49.691Z,16.80
2018-06-15T00:08:17.866Z,16.80
2018-06-15T00:10:46.157Z,16.70
2018-06-15T00:13:14.325Z,16.70
2018-06-15T00:15:42.541Z,16.70
2018-06-15T00:18:11.092Z,16.80
2018-06-15T00:20:39.269Z,16.70
2018-06-15T00:23:07.559Z,16.70
2018-06-15T00:25:35.715Z,16.70
2018-06-15T00:28:03.940Z,16.70
2018-06-15T00:30:32.093Z,16.70
2018-06-15T00:33:00.239Z,16.70
2018-06-15T00:35:28.437Z,16.80
2018-06-15T00:37:56.640Z,16.70
2018-06-15T00:40:24.820Z,16.70
2018-06-15T00:42:52.979Z,16.70
2018-06-15T00:45:21.156Z,16.70
2018-06-15T00:47:49.373Z,16.70
2018-06-15T00:50:17.623Z,16.70
2018-06-15T00:52:45.783Z,16.70
2018-06-15T00:55:14.000Z,16.70
2018-06-15T00:57:48.094Z,16.70
2018-06-15T01:00:16.659Z,16.60
2018-06-15T01:02:44.861Z,16.70
2018-06-15T01:05:13.030Z,16.60
2018-06-15T01:07:41.283Z,16.70
2018-06-15T01:10:09.447Z,16.60
2018-06-15T01:12:37.614Z,16.60
2018-06-15T01:15:06.109Z,16.60
2018-06-15T01:17:34.242Z,16.60
2018-06-15T01:20:02.378Z,16.50
2018-06-15T01:22:30.579Z,16.50
2018-06-15T01:24:58.725Z,16.50
2018-06-15T01:27:26.928Z,16.50
2018-06-15T01:29:55.120Z,16.50
2018-06-15T01:32:23.321Z,16.50
2018-06-15T01:34:51.467Z,16.50
2018-06-15T01:37:19.620Z,16.50
2018-06-15T01:39:47.760Z,16.40
2018-06-15T01:42:15.976Z,16.30
2018-06-15T01:44:44.110Z,16.30
2018-06-15T01:47:12.269Z,16.30
2018-06-15T01:49:40.433Z,16.30
2018-06-15T01:52:08.595Z,16.50
2018-06-15T01:54:36.809Z,16.30
2018-06-15T01:57:04.977Z,16.30
2018-06-15T01:59:33.147Z,16.30
2018-06-15T02:02:01.364Z,16.30
2018-06-15T02:04:29.517Z,16.30
2018-06-15T02:06:57.666Z,16.30
2018-06-15T02:09:25.889Z,16.30
2018-06-15T02:11:54.089Z,16.30
2018-06-15T02:14:22.297Z,16.20
2018-06-15T02:16:50.476Z,16.30
2018-06-15T02:19:18.686Z,16.20
2018-06-15T02:24:14.901Z,16.30
2018-06-15T02:26:43.064Z,16.30
2018-06-15T02:29:11.346Z,16.30
2018-06-15T02:34:07.537Z,16.30
2018-06-15T02:36:35.725Z,16.40
2018-06-15T02:39:05.830Z,16.40
2018-06-15T02:41:34.013Z,16.40
2018-06-15T02:44:02.219Z,16.40
2018-06-15T02:46:30.407Z,16.30
2018-06-15T02:48:58.625Z,16.30
2018-06-15T02:51:26.850Z,16.30
2018-06-15T02:53:55.077Z,16.40
2018-06-15T02:56:23.302Z,16.40
2018-06-15T02:58:51.601Z,16.40
2018-06-15T03:01:19.757Z,16.30
2018-06-15T03:03:47.931Z,16.30
2018-06-15T03:06:16.105Z,16.40
2018-06-15T03:08:44.472Z,16.50
2018-06-15T03:11:12.629Z,16.50
2018-06-15T03:13:43.920Z,16.50
2018-06-15T03:16:12.153Z,16.50
2018-06-15T03:18:40.487Z,16.50
2018-06-15T03:21:08.624Z,16.50
2018-06-15T03:23:36.938Z,16.50
2018-06-15T03:26:05.182Z,16.50
2018-06-15T03:28:33.406Z,16.50
2018-06-15T03:31:01.682Z,16.40
2018-06-15T03:33:30.287Z,16.50
2018-06-15T03:35:58.572Z,16.50
2018-06-15T03:38:26.761Z,16.50
2018-06-15T03:40:55.001Z,16.50
2018-06-15T03:43:23.196Z,16.50
2018-06-15T03:45:51.382Z,16.60
2018-06-15T03:48:19.591Z,16.50
2018-06-15T03:50:47.736Z,16.60
2018-06-15T03:53:15.924Z,16.60
2018-06-15T03:55:44.324Z,16.50
2018-06-15T03:58:13.020Z,16.60
2018-06-15T04:00:41.222Z,16.60
2018-06-15T04:03:09.388Z,19.80
2018-06-15T04:05:37.657Z,16.70
2018-06-15T04:08:05.945Z,16.70
2018-06-15T04:10:34.188Z,16.60
2018-06-15T04:13:02.450Z,16.70
2018-06-15T04:15:30.588Z,16.60
2018-06-15T04:18:03.338Z,16.70
2018-06-15T04:20:31.521Z,16.70
2018-06-15T04:23:00.034Z,16.70
2018-06-15T04:25:28.883Z,16.70
2018-06-15T04:27:57.117Z,16.70
2018-06-15T04:30:37.248Z,16.80
2018-06-15T04:33:05.627Z,16.80
2018-06-15T04:35:33.808Z,16.80
2018-06-15T04:38:02.080Z,16.80
2018-06-15T04:40:30.310Z,16.90
2018-06-15T04:42:58.579Z,16.90
2018-06-15T04:45:26.729Z,16.90
2018-06-15T04:47:54.897Z,17.00
2018-06-15T04:50:24.597Z,17.00
2018-06-15T04:52:52.792Z,17.00
2018-06-15T04:55:21.261Z,16.90
2018-06-15T04:57:49.621Z,16.80
2018-06-15T05:00:17.821Z,17.00
2018-06-15T05:02:46.123Z,17.00
2018-06-15T05:05:14.352Z,17.00
2018-06-15T05:07:42.551Z,17.10
2018-06-15T05:10:10.807Z,17.10
2018-06-15T05:12:39.369Z,17.20
2018-06-15T05:15:07.589Z,17.30
2018-06-15T05:17:35.789Z,17.40
2018-06-15T05:20:04.394Z,17.40
2018-06-15T05:22:33.487Z,17.40
2018-06-15T05:25:03.357Z,17.40
2018-06-15T05:27:31.698Z,17.40
2018-06-15T05:30:01.169Z,17.40
2018-06-15T05:32:30.035Z,17.50
2018-06-15T05:34:58.880Z,17.50
2018-06-15T05:37:27.713Z,17.50
2018-06-15T05:42:24.573Z,17.60
2018-06-15T05:44:53.291Z,17.70
2018-06-15T05:47:22.330Z,17.80
2018-06-15T05:49:51.273Z,17.90
2018-06-15T05:52:19.801Z,17.80
2018-06-15T05:54:48.382Z,18.00
2018-06-15T05:57:16.837Z,18.10
2018-06-15T05:59:45.393Z,18.20
2018-06-15T06:02:13.839Z,18.20
2018-06-15T06:07:11.853Z,18.40
2018-06-15T06:09:40.485Z,18.10
2018-06-15T06:12:09.531Z,18.10
2018-06-15T06:14:38.115Z,18.10
2018-06-15T06:17:06.718Z,18.30
2018-06-15T06:19:35.266Z,18.30
2018-06-15T06:22:03.833Z,18.40
2018-06-15T06:24:32.836Z,18.50
2018-06-15T06:27:01.464Z,18.50
2018-06-15T06:29:30.202Z,18.50
2018-06-15T06:31:59.039Z,18.60
2018-06-15T06:34:27.993Z,18.60
2018-06-15T06:36:56.482Z,18.50
2018-06-15T06:39:24.958Z,18.50
2018-06-15T06:41:53.675Z,18.60
2018-06-15T06:44:22.532Z,18.60
2018-06-15T06:46:51.336Z,18.80
2018-06-15T06:49:20.105Z,18.80
2018-06-15T06:51:48.850Z,18.80
2018-06-15T06:54:17.668Z,18.80
2018-06-15T06:56:46.385Z,18.80
2018-06-15T06:59:14.788Z,18.80
2018-06-15T07:01:44.027Z,18.90
2018-06-15T07:04:14.213Z,19.00
2018-06-15T07:06:43.015Z,19.00
2018-06-15T07:09:11.829Z,19.10
2018-06-15T07:11:40.285Z,19.20
2018-06-15T07:14:08.901Z,19.20
2018-06-15T07:16:37.751Z,19.20
2018-06-15T07:19:06.415Z,19.20
2018-06-15T07:21:35.144Z,19.20
2018-06-15T07:24:10.430Z,19.20
2018-06-15T07:26:39.138Z,19.30
2018-06-15T07:29:07.991Z,19.30
2018-06-15T07:31:36.725Z,19.30
2018-06-15T07:34:05.806Z,19.10
2018-06-15T07:36:38.004Z,19.10
2018-06-15T07:39:08.294Z,19.10
2018-06-15T07:41:36.880Z,19.00
2018-06-15T07:44:05.470Z,19.00
2018-06-15T07:46:34.244Z,18.90
2018-06-15T07:49:04.326Z,19.00
2018-06-15T07:51:32.858Z,19.00
2018-06-15T07:54:01.263Z,18.90
2018-06-15T07:56:29.653Z,18.80
2018-06-15T07:58:58.296Z,18.80
2018-06-15T08:01:26.683Z,19.00
2018-06-15T08:04:02.747Z,19.10
2018-06-15T08:06:31.573Z,19.20
2018-06-15T08:09:01.046Z,19.20
2018-06-15T08:11:30.127Z,19.30
2018-06-15T08:13:58.594Z,19.40
2018-06-15T08:18:55.421Z,19.50
2018-06-15T08:21:24.320Z,19.40
2018-06-15T08:23:52.967Z,19.50
2018-06-15T08:26:21.424Z,19.50
2018-06-15T08:28:50.500Z,20.00
2018-06-15T08:31:19.231Z,20.00
2018-06-15T08:33:47.988Z,20.20
2018-06-15T08:36:16.615Z,20.50
2018-06-15T08:38:45.217Z,20.60
2018-06-15T08:41:13.949Z,20.70
2018-06-15T08:43:42.707Z,21.00
2018-06-15T08:46:11.734Z,21.00
2018-06-15T08:48:40.272Z,21.10
2018-06-15T08:51:09.216Z,21.20
2018-06-15T08:56:05.822Z,21.20
2018-06-15T08:58:34.421Z,21.30
2018-06-15T09:01:03.022Z,21.60
2018-06-15T09:03:31.526Z,21.60
2018-06-15T09:05:59.848Z,21.60
2018-06-15T09:08:28.488Z,21.80
2018-06-15T09:10:57.776Z,21.80
2018-06-15T09:13:26.155Z,21.80
2018-06-15T09:15:54.804Z,21.60
2018-06-15T09:18:23.208Z,21.60
2018-06-15T09:20:52.074Z,21.70
2018-06-15T09:23:20.538Z,21.50
2018-06-15T09:25:50.000Z,21.50
2018-06-15T09:28:18.459Z,21.60
2018-06-15T09:30:46.951Z,21.70
2018-06-15T09:33:15.559Z,21.60
2018-06-15T09:38:12.170Z,21.80
2018-06-15T09:40:40.520Z,21.80
2018-06-15T09:43:09.006Z,21.90
2018-06-15T09:45:37.943Z,22.00
2018-06-15T09:48:07.212Z,21.90
2018-06-15T09:50:35.777Z,22.10
2018-06-15T09:53:04.419Z,22.10
2018-06-15T09:55:32.900Z,22.10
2018-06-15T09:58:04.282Z,22.10
2018-06-15T10:00:37.965Z,22.10
2018-06-15T10:03:06.489Z,22.00
2018-06-15T10:05:35.264Z,21.90
2018-06-15T10:08:03.693Z,22.00
2018-06-15T10:10:32.231Z,21.90
2018-06-15T10:13:01.017Z,22.00
2018-06-15T10:15:29.454Z,22.00
2018-06-15T10:17:57.952Z,22.00
2018-06-15T10:20:26.631Z,22.00
2018-06-15T10:22:55.213Z,22.10
2018-06-15T10:25:23.552Z,22.10
2018-06-15T10:27:52.027Z,22.20
2018-06-15T10:30:20.542Z,22.10
2018-06-15T10:32:49.111Z,22.00
2018-06-15T10:35:17.803Z,21.80
2018-06-15T10:37:46.242Z,21.80
2018-06-15T10:40:15.352Z,21.90
2018-06-15T10:42:43.665Z,21.80
2018-06-15T10:45:12.182Z,21.80
2018-06-15T10:47:40.560Z,21.60
2018-06-15T10:50:09.190Z,21.70
2018-06-15T10:52:37.782Z,21.70
2018-06-15T10:55:06.574Z,21.40
2018-06-15T11:00:04.325Z,21.30
2018-06-15T11:02:32.957Z,21.30
2018-06-15T11:05:01.707Z,21.40
2018-06-15T11:07:30.219Z,21.40
2018-06-15T11:09:59.282Z,21.40
2018-06-15T11:12:27.779Z,21.60
2018-06-15T11:14:56.310Z,21.20
2018-06-15T11:17:24.709Z,21.30
2018-06-15T11:19:53.063Z,21.50
2018-06-15T11:22:21.422Z,21.50
2018-06-15T11:24:49.954Z,21.70
2018-06-15T11:29:46.655Z,21.60
2018-06-15T11:32:15.493Z,21.70
2018-06-15T11:34:44.090Z,21.80
2018-06-15T11:37:12.622Z,21.90
2018-06-15T11:39:41.087Z,22.10
2018-06-15T11:42:09.751Z,22.10
2018-06-15T11:44:38.259Z,22.00
2018-06-15T11:47:07.159Z,22.00
2018-06-15T11:49:37.942Z,22.30
2018-06-15T11:52:06.439Z,22.20
2018-06-15T11:54:34.858Z,22.20
2018-06-15T11:57:03.153Z,22.10
2018-06-15T11:59:31.717Z,22.10
2018-06-15T12:02:00.692Z,22.30
2018-06-15T12:04:29.277Z,22.30
2018-06-15T12:06:58.226Z,22.40
2018-06-15T12:09:26.700Z,22.40
2018-06-15T12:11:55.028Z,22.50
2018-06-15T12:14:23.474Z,22.60
2018-06-15T12:16:52.055Z,22.70
2018-06-15T12:19:20.425Z,22.70
2018-06-15T12:21:48.858Z,22.80
2018-06-15T12:24:17.737Z,23.10
2018-06-15T12:26:46.253Z,23.00
2018-06-15T12:29:14.512Z,23.10
2018-06-15T12:31:45.272Z,23.10
2018-06-15T12:34:13.769Z,23.40
2018-06-15T12:36:42.141Z,23.60
2018-06-15T12:39:10.989Z,23.80
2018-06-15T12:41:39.643Z,23.80
2018-06-15T12:44:08.308Z,23.90
2018-06-15T12:46:36.910Z,22.40
2018-06-15T12:49:05.732Z,23.90
2018-06-15T12:51:34.234Z,23.80
2018-06-15T12:54:02.997Z,23.90
2018-06-15T12:56:31.324Z,23.80
2018-06-15T12:59:00.091Z,23.80
2018-06-15T13:01:28.395Z,23.80
2018-06-15T13:03:56.945Z,23.80
2018-06-15T13:06:25.275Z,24.00
2018-06-15T13:08:53.687Z,24.00
2018-06-15T13:11:22.181Z,23.70
2018-06-15T13:13:50.546Z,23.80
2018-06-15T13:16:19.105Z,23.90
2018-06-15T13:18:47.995Z,23.90
2018-06-15T13:21:16.796Z,24.00
2018-06-15T13:23:45.203Z,24.10
2018-06-15T13:26:13.525Z,24.10
2018-06-15T13:28:41.767Z,24.10
2018-06-15T13:31:10.155Z,23.90
2018-06-15T13:33:38.538Z,23.90
2018-06-15T13:36:06.815Z,24.20
2018-06-15T13:38:35.124Z,24.60
2018-06-15T13:41:03.575Z,24.70
2018-06-15T13:43:32.048Z,24.50
2018-06-15T13:46:01.493Z,24.60
2018-06-15T13:48:30.883Z,24.60
2018-06-15T13:50:59.149Z,24.50
2018-06-15T13:53:27.558Z,24.40
2018-06-15T13:55:57.921Z,24.40
2018-06-15T13:58:26.160Z,24.40
2018-06-15T14:00:54.592Z,24.00
2018-06-15T14:03:22.925Z,24.00
2018-06-15T14:05:51.180Z,24.20
2018-06-15T14:08:19.510Z,24.30
2018-06-15T14:10:47.815Z,24.20
2018-06-15T14:13:16.286Z,24.30
2018-06-15T14:15:45.835Z,24.30
2018-06-15T14:18:14.283Z,24.20
2018-06-15T14:20:42.661Z,23.90
2018-06-15T14:23:11.027Z,23.60
2018-06-15T14:25:40.052Z,23.60
2018-06-15T14:28:08.399Z,23.40
2018-06-15T14:30:36.713Z,23.40
2018-06-15T14:33:05.055Z,23.20
2018-06-15T14:35:33.414Z,23.30
2018-06-15T14:38:01.670Z,23.30
2018-06-15T14:40:29.992Z,23.30
2018-06-15T14:42:58.369Z,23.40
2018-06-15T14:45:26.820Z,23.40
2018-06-15T14:47:55.051Z,23.40
2018-06-15T14:50:23.385Z,23.40
2018-06-15T14:52:51.671Z,23.20
2018-06-15T14:55:20.254Z,23.20
2018-06-15T14:57:48.677Z,23.10
2018-06-15T15:00:17.209Z,23.00
2018-06-15T15:02:45.859Z,23.10
2018-06-15T15:05:14.760Z,23.10
2018-06-15T15:07:43.205Z,23.10
2018-06-15T15:10:11.490Z,23.00
2018-06-15T15:12:40.998Z,23.00
2018-06-15T15:17:38.087Z,22.90
2018-06-15T15:20:06.465Z,22.70
2018-06-15T15:22:34.858Z,22.70
2018-06-15T15:25:03.348Z,22.60
2018-06-15T15:27:31.671Z,22.70
2018-06-15T15:29:59.984Z,22.70
2018-06-15T15:32:28.387Z,22.60
2018-06-15T15:34:56.683Z,22.50
2018-06-15T15:37:25.090Z,22.40
2018-06-15T15:42:21.569Z,22.50
2018-06-15T15:44:49.919Z,22.50
2018-06-15T15:47:18.217Z,22.40
2018-06-15T15:49:46.595Z,22.40
2018-06-15T15:52:14.857Z,22.40
2018-06-15T15:54:43.301Z,22.30
2018-06-15T15:57:11.627Z,22.30
2018-06-15T15:59:40.030Z,22.30
2018-06-15T16:02:08.299Z,22.30
2018-06-15T16:04:36.808Z,22.20
2018-06-15T16:07:05.161Z,22.10
2018-06-15T16:09:33.420Z,22.10
2018-06-15T16:12:01.800Z,22.10
2018-06-15T16:14:30.107Z,22.10
2018-06-15T16:16:58.370Z,22.10
2018-06-15T16:19:26.731Z,22.10
2018-06-15T16:21:54.983Z,22.10
2018-06-15T16:24:23.301Z,22.10
2018-06-15T16:26:51.544Z,22.10
2018-06-15T16:29:19.850Z,22.10
2018-06-15T16:31:48.284Z,22.10
2018-06-15T16:34:16.607Z,22.10
2018-06-15T16:36:44.993Z,22.00
2018-06-15T16:39:13.357Z,22.00
2018-06-15T16:41:41.787Z,22.00
2018-06-15T16:44:10.395Z,22.00
2018-06-15T16:46:44.671Z,22.00
2018-06-15T16:49:13.033Z,22.00
2018-06-15T16:51:41.466Z,22.00
2018-06-15T16:54:09.868Z,22.10
2018-06-15T16:56:38.246Z,22.10
2018-06-15T16:59:06.744Z,22.10
2018-06-15T17:01:35.101Z,22.10
2018-06-15T17:04:03.440Z,22.10
2018-06-15T17:06:31.744Z,22.10
2018-06-15T17:09:00.077Z,22.10
2018-06-15T17:11:28.574Z,22.10
2018-06-15T17:13:57.007Z,22.00
2018-06-15T17:16:25.336Z,22.10
2018-06-15T17:18:53.870Z,22.10
2018-06-15T17:21:22.174Z,22.10
2018-06-15T17:23:50.734Z,22.20
2018-06-15T17:26:19.012Z,22.20
2018-06-15T17:28:47.491Z,22.20
2018-06-15T17:31:15.840Z,22.30
2018-06-15T17:33:44.129Z,22.20
2018-06-15T17:36:12.627Z,22.20
2018-06-15T17:38:41.218Z,22.30
2018-06-15T17:41:09.933Z,22.30
2018-06-15T17:43:38.681Z,22.30
2018-06-15T17:46:07.353Z,22.30
2018-06-15T17:48:36.169Z,22.30
2018-06-15T17:51:05.013Z,22.30
2018-06-15T17:53:33.730Z,22.40
2018-06-15T17:56:01.984Z,23.70
2018-06-15T17:58:30.698Z,25.60
2018-06-15T18:00:59.804Z,26.70
2018-06-15T18:03:28.676Z,27.00
2018-06-15T18:08:25.747Z,25.30
2018-06-15T18:10:54.773Z,24.40
2018-06-15T18:13:23.313Z,23.70
2018-06-15T18:15:52.122Z,23.70
2018-06-15T18:18:20.665Z,23.50
2018-06-15T18:20:49.289Z,23.20
2018-06-15T18:23:18.388Z,23.00
2018-06-15T18:25:47.205Z,22.90
2018-06-15T18:28:15.869Z,22.90
2018-06-15T18:30:44.611Z,22.70
2018-06-15T18:33:13.107Z,22.70
2018-06-15T18:35:41.600Z,22.70
2018-06-15T18:38:10.221Z,22.60
2018-06-15T18:40:39.018Z,22.60
2018-06-15T18:43:07.555Z,22.50
2018-06-15T18:45:36.032Z,22.30
2018-06-15T18:48:04.876Z,22.20
2018-06-15T18:50:33.511Z,22.20
2018-06-15T18:53:02.104Z,22.10
2018-06-15T18:55:30.463Z,22.20
2018-06-15T18:57:58.850Z,22.60
2018-06-15T19:00:27.325Z,22.40
2018-06-15T19:02:55.710Z,22.10
2018-06-15T19:05:24.183Z,22.00
2018-06-15T19:07:52.623Z,21.90
2018-06-15T19:10:21.214Z,21.80
2018-06-15T19:12:49.639Z,21.70
2018-06-15T19:15:18.224Z,21.60
2018-06-15T19:17:46.697Z,21.60
2018-06-15T19:20:15.129Z,21.50
2018-06-15T19:22:43.715Z,21.40
2018-06-15T19:25:12.285Z,21.40
2018-06-15T19:27:41.034Z,21.20
2018-06-15T19:30:09.741Z,21.10
2018-06-15T19:32:41.088Z,21.10
2018-06-15T19:35:09.903Z,21.10
2018-06-15T19:37:38.654Z,21.00
2018-06-15T19:40:07.242Z,21.00
2018-06-15T19:42:35.759Z,20.90
2018-06-15T19:45:05.176Z,20.80
2018-06-15T19:47:33.857Z,20.80
2018-06-15T19:50:02.810Z,20.80
2018-06-15T19:52:31.389Z,20.70
2018-06-15T19:55:00.242Z,20.70
2018-06-15T19:57:29.044Z,20.60
2018-06-15T20:00:03.159Z,20.60
2018-06-15T20:02:31.845Z,20.60
2018-06-15T20:05:00.409Z,20.50
2018-06-15T20:07:29.064Z,20.40
2018-06-15T20:09:57.402Z,20.40
2018-06-15T20:12:25.816Z,20.40
2018-06-15T20:14:54.547Z,20.40
2018-06-15T20:17:22.999Z,20.40
2018-06-15T20:19:51.497Z,20.30
2018-06-15T20:22:20.053Z,20.20
2018-06-15T20:24:48.723Z,20.20
2018-06-15T20:27:17.398Z,20.20
2018-06-15T20:29:45.911Z,20.10
2018-06-15T20:32:14.532Z,20.00
2018-06-15T20:34:43.075Z,20.00
2018-06-15T20:37:11.645Z,20.00
2018-06-15T20:39:40.106Z,20.00
2018-06-15T20:42:09.125Z,20.00
2018-06-15T20:44:40.169Z,19.90
2018-06-15T20:47:08.451Z,19.90
2018-06-15T20:49:36.823Z,19.90
2018-06-15T20:52:05.387Z,19.80
2018-06-15T20:54:33.950Z,19.80
2018-06-15T20:57:02.629Z,19.70
2018-06-15T20:59:31.253Z,19.70
2018-06-15T21:01:59.900Z,19.70
2018-06-15T21:04:28.638Z,19.60
2018-06-15T21:06:57.395Z,19.60
2018-06-15T21:09:25.857Z,19.50
2018-06-15T21:11:55.086Z,19.50
2018-06-15T21:14:23.644Z,19.50
2018-06-15T21:16:52.118Z,19.50
2018-06-15T21:19:20.503Z,19.50
2018-06-15T21:21:49.154Z,19.40
2018-06-15T21:24:18.030Z,19.40
2018-06-15T21:26:47.119Z,19.30
2018-06-15T21:29:16.290Z,19.20
2018-06-15T21:31:44.973Z,19.20
2018-06-15T21:34:13.667Z,19.20
2018-06-15T21:36:42.333Z,19.20
2018-06-15T21:39:11.048Z,19.10
2018-06-15T21:41:39.455Z,19.00
2018-06-15T21:44:08.324Z,19.00
2018-06-15T21:46:36.877Z,18.90
2018-06-15T21:49:05.351Z,18.80
2018-06-15T21:51:33.833Z,18.70
2018-06-15T21:54:02.473Z,18.70
2018-06-15T21:56:31.384Z,18.70
2018-06-15T21:59:00.654Z,18.70
2018-06-15T22:01:29.958Z,18.60
2018-06-15T22:03:59.150Z,18.60
2018-06-15T22:08:56.188Z,18.50
2018-06-15T22:11:25.029Z,18.50
2018-06-15T22:13:53.493Z,18.50
2018-06-15T22:16:21.967Z,18.40
2018-06-15T22:18:50.835Z,18.40
2018-06-15T22:21:19.441Z,18.30
2018-06-15T22:23:48.123Z,18.30
2018-06-15T22:26:17.555Z,18.20
2018-06-15T22:28:47.968Z,18.10
2018-06-15T22:31:16.940Z,18.10
2018-06-15T22:33:45.710Z,18.10
2018-06-15T22:36:14.841Z,18.00
2018-06-15T22:38:43.652Z,18.00
2018-06-15T22:41:12.386Z,18.20
2018-06-15T22:43:41.013Z,18.20
2018-06-15T22:48:38.053Z,18.10
2018-06-15T22:51:06.726Z,18.10
2018-06-15T22:53:35.127Z,18.10
2018-06-15T22:56:04.274Z,18.00
2018-06-15T22:58:32.954Z,18.00
2018-06-15T23:01:01.644Z,18.00
2018-06-15T23:03:30.360Z,18.00
2018-06-15T23:05:59.119Z,18.00
2018-06-15T23:08:27.454Z,18.10
2018-06-15T23:10:56.024Z,18.10
2018-06-15T23:13:24.835Z,18.00
2018-06-15T23:15:53.286Z,18.00
2018-06-15T23:18:22.072Z,18.10
2018-06-15T23:20:50.751Z,18.20
2018-06-15T23:23:19.073Z,18.10
2018-06-15T23:25:47.643Z,18.10
2018-06-15T23:30:44.392Z,18.00
2018-06-15T23:33:12.872Z,17.80
2018-06-15T23:35:41.447Z,17.70
2018-06-15T23:38:10.051Z,17.70
2018-06-15T23:40:38.442Z,17.70
2018-06-15T23:43:07.781Z,17.70
2018-06-15T23:45:36.378Z,17.70
2018-06-15T23:48:05.524Z,17.70
2018-06-15T23:50:33.862Z,17.80
2018-06-15T23:53:02.551Z,17.90
2018-06-15T23:55:31.407Z,17.70
2018-06-15T23:58:00.116Z,17.70
